Time;durP1;ratioP1;P1;durP2;ratioP2;P2;SDS_P1;SDS_P2;PMS_P1;PMS_P2;Temp;Humidity;BMP_temperature;BMP_pressure;BME280_temperature;BME280_humidity;BME280_pressure;Samples;Min_cycle;Max_cycle;Signal;HPM_P1;HPM_P2
2023/08/22 00:02:21;;;;;;;6.90;6.20;;;;;;;22.30;100.00;99408.42;109593;1250;67721;-62
2023/08/22 00:04:48;;;;;;;6.70;6.00;;;;;;;22.29;100.00;99411.88;109635;1251;72471;-61
2023/08/22 00:07:14;;;;;;;6.80;6.20;;;;;;;22.27;100.00;99413.42;109687;1250;58998;-62
2023/08/22 00:09:41;;;;;;;7.00;6.40;;;;;;;22.26;100.00;99415.75;109655;1250;60425;-63
2023/08/22 00:12:08;;;;;;;6.90;6.30;;;;;;;22.24;100.00;99417.44;109666;1250;74954;-60
2023/08/22 00:14:34;;;;;;;6.80;6.30;;;;;;;22.20;100.00;99418.08;109654;1250;67182;-60
2023/08/22 00:17:02;;;;;;;7.20;6.70;;;;;;;22.16;100.00;99420.95;109647;1250;71735;-63
2023/08/22 00:19:28;;;;;;;6.40;6.00;;;;;;;22.13;100.00;99418.02;109682;1250;60340;-62
2023/08/22 00:21:56;;;;;;;7.00;6.40;;;;;;;22.09;100.00;99423.55;109611;1250;60137;-60
2023/08/22 00:24:23;;;;;;;7.60;7.00;;;;;;;22.02;100.00;99416.55;109682;1250;73165;-63
2023/08/22 00:26:50;;;;;;;7.60;6.90;;;;;;;21.94;100.00;99416.84;109699;1250;67796;-61
2023/08/22 00:29:16;;;;;;;7.00;6.30;;;;;;;21.82;100.00;99417.77;109621;1250;71531;-61
2023/08/22 00:31:44;;;;;;;8.70;7.80;;;;;;;21.63;100.00;99418.16;109641;1250;59157;-63
2023/08/22 00:34:10;;;;;;;8.60;7.50;;;;;;;21.44;100.00;99422.17;109614;1250;59065;-62
2023/08/22 00:36:36;;;;;;;7.80;7.00;;;;;;;21.24;100.00;99421.09;109648;1250;58947;-63
2023/08/22 00:39:03;;;;;;;7.40;6.70;;;;;;;21.11;100.00;99423.58;109639;1250;58961;-63
2023/08/22 00:41:30;;;;;;;8.10;6.10;;;;;;;21.07;100.00;99423.00;109588;1250;72844;-62
2023/08/22 00:43:56;;;;;;;6.90;6.30;;;;;;;21.07;100.00;99422.08;109626;1250;60165;-61
2023/08/22 00:46:25;;;;;;;7.30;6.70;;;;;;;21.07;100.00;99422.90;109707;1250;59462;-62
2023/08/22 00:48:51;;;;;;;7.10;6.40;;;;;;;21.07;100.00;99422.99;109624;1250;72827;-60
2023/08/22 00:51:18;;;;;;;7.50;6.50;;;;;;;21.05;100.00;99424.46;109611;1250;67662;-62
2023/08/22 00:53:45;;;;;;;7.10;6.20;;;;;;;21.05;100.00;99424.34;109652;1250;72475;-63
2023/08/22 00:56:11;;;;;;;6.50;5.90;;;;;;;21.04;100.00;99423.73;109563;1250;58981;-64
2023/08/22 00:58:38;;;;;;;7.10;6.40;;;;;;;21.03;100.00;99425.54;109618;1250;60266;-61
2023/08/22 01:01:04;;;;;;;6.20;5.70;;;;;;;21.01;100.00;99425.08;109665;1250;74651;-60
2023/08/22 01:03:31;;;;;;;6.40;5.90;;;;;;;20.99;100.00;99422.00;109657;1250;66612;-60
2023/08/22 01:06:29;;;;;;;7.10;6.20;;;;;;;20.88;100.00;99419.02;109651;1250;72677;-61
2023/08/22 01:09:10;;;;;;;6.70;6.20;;;;;;;20.77;100.00;99421.23;109496;1250;61873;-63
2023/08/22 01:11:42;;;;;;;5.90;5.50;;;;;;;20.77;100.00;99419.23;109419;1251;59548;-60
2023/08/22 01:14:11;;;;;;;5.50;5.10;;;;;;;20.82;100.00;99421.44;109478;1250;73793;-59
2023/08/22 01:16:37;;;;;;;6.10;5.70;;;;;;;20.80;100.00;99422.47;109648;1251;66428;-59
2023/08/22 01:19:04;;;;;;;6.20;5.70;;;;;;;20.72;100.00;99417.96;109510;1250;72517;-59
2023/08/22 01:21:51;;;;;;;5.80;5.40;;;;;;;20.61;100.00;99419.72;109515;1250;60548;-62
2023/08/22 01:24:20;;;;;;;6.90;6.10;;;;;;;20.50;100.00;99417.58;109620;1250;59044;-60
2023/08/22 01:26:47;;;;;;;6.70;6.20;;;;;;;20.43;100.00;99418.00;109704;1250;74382;-60
2023/08/22 01:29:18;;;;;;;6.90;6.10;;;;;;;20.30;100.00;99419.92;109488;1250;67948;-63
2023/08/22 01:32:06;;;;;;;6.80;5.70;;;;;;;20.18;100.00;99414.58;109525;1250;71313;-60
2023/08/22 01:34:35;;;;;;;6.10;5.50;;;;;;;20.14;100.00;99413.02;109560;1250;60068;-62
2023/08/22 01:37:02;;;;;;;6.70;5.90;;;;;;;20.10;100.00;99415.52;109525;1251;60130;-60
2023/08/22 01:39:29;;;;;;;8.30;5.40;;;;;;;20.08;100.00;99411.30;109574;1250;73508;-62
2023/08/22 01:41:56;;;;;;;5.40;5.00;;;;;;;20.06;100.00;99411.14;109593;1250;66641;-61
2023/08/22 01:44:24;;;;;;;5.40;5.00;;;;;;;20.04;100.00;99411.41;109601;1250;58936;-61
2023/08/22 01:46:50;;;;;;;5.20;4.70;;;;;;;19.97;100.00;99413.64;109686;1250;59007;-64
2023/08/22 01:49:17;;;;;;;6.20;5.60;;;;;;;19.89;100.00;99411.11;109732;1250;59324;-61
2023/08/22 01:51:43;;;;;;;6.70;5.50;;;;;;;19.81;100.00;99412.41;109686;1250;61035;-63
2023/08/22 01:54:11;;;;;;;6.60;6.00;;;;;;;19.70;100.00;99408.62;109588;1250;66463;-62
2023/08/22 01:56:38;;;;;;;6.40;5.80;;;;;;;19.61;100.00;99406.71;109596;1250;72445;-64
2023/08/22 01:59:05;;;;;;;6.60;6.10;;;;;;;19.52;100.00;99410.79;109575;1250;60063;-62
2023/08/22 02:01:31;;;;;;;6.60;6.10;;;;;;;19.42;100.00;99410.90;109532;1250;60261;-62
2023/08/22 02:04:03;;;;;;;6.50;5.90;;;;;;;19.32;100.00;99407.85;109577;1250;73256;-64
2023/08/22 02:06:31;;;;;;;5.50;5.10;;;;;;;19.26;100.00;99410.41;109736;1250;66919;-62
2023/08/22 02:08:57;;;;;;;6.70;6.20;;;;;;;19.22;100.00;99405.58;109645;1250;72671;-62
2023/08/22 02:11:24;;;;;;;6.40;5.80;;;;;;;19.23;100.00;99406.68;109558;1250;60200;-62
2023/08/22 02:13:51;;;;;;;7.60;5.40;;;;;;;19.23;100.00;99408.06;109670;1250;58900;-61
2023/08/22 02:16:17;;;;;;;6.00;5.50;;;;;;;19.21;100.00;99411.45;109507;1251;59624;-63
2023/08/22 02:18:44;;;;;;;5.70;5.30;;;;;;;19.24;100.00;99411.70;109689;1250;67269;-61
2023/08/22 02:21:11;;;;;;;6.70;5.50;;;;;;;19.21;100.00;99413.55;109555;1250;71540;-61
2023/08/22 02:23:37;;;;;;;5.70;5.20;;;;;;;19.16;100.00;99416.95;109676;1250;61648;-63
2023/08/22 02:26:04;;;;;;;5.60;5.20;;;;;;;19.17;100.00;99418.92;109666;1250;58924;-62
2023/08/22 02:28:31;;;;;;;5.50;5.00;;;;;;;19.23;100.00;99415.23;109647;1250;74941;-63
2023/08/22 02:30:58;;;;;;;5.70;5.00;;;;;;;19.28;100.00;99413.56;109664;1250;66939;-63
2023/08/22 02:33:24;;;;;;;4.90;4.50;;;;;;;19.26;100.00;99409.67;109531;1250;72760;-62
2023/08/22 02:35:51;;;;;;;5.40;5.00;;;;;;;19.19;100.00;99414.21;109659;1250;58967;-64
2023/08/22 02:38:19;;;;;;;5.60;5.10;;;;;;;19.09;100.00;99413.70;109580;1250;58910;-63
2023/08/22 02:40:46;;;;;;;5.60;5.10;;;;;;;18.96;100.00;99416.58;109588;1250;74589;-61
2023/08/22 02:43:13;;;;;;;6.90;6.00;;;;;;;18.86;100.00;99413.41;109607;1250;66401;-62
2023/08/22 02:45:40;;;;;;;6.50;5.80;;;;;;;18.76;100.00;99416.69;109587;1250;71117;-62
2023/08/22 02:48:07;;;;;;;6.80;6.20;;;;;;;18.64;100.00;99415.90;109559;1251;60648;-64
2023/08/22 02:50:33;;;;;;;7.40;6.70;;;;;;;18.53;100.00;99420.94;109546;1250;59086;-63
2023/08/22 02:53:00;;;;;;;10.70;6.70;;;;;;;18.42;100.00;99423.71;109693;1250;74773;-63
2023/08/22 02:55:26;;;;;;;8.10;7.10;;;;;;;18.32;100.00;99424.84;109616;1250;58972;-63
2023/08/22 02:57:53;;;;;;;7.30;6.70;;;;;;;18.21;100.00;99426.43;109620;1250;59012;-64
2023/08/22 03:00:19;;;;;;;7.20;6.50;;;;;;;18.11;100.00;99424.29;109591;1250;59539;-61
2023/08/22 03:02:46;;;;;;;6.40;5.90;;;;;;;18.05;100.00;99427.15;109581;1251;59074;-64
2023/08/22 03:05:13;;;;;;;5.90;5.40;;;;;;;18.01;100.00;99428.71;109678;1250;74340;-60
2023/08/22 03:07:40;;;;;;;6.70;6.00;;;;;;;17.97;100.00;99433.71;109560;1250;66372;-62
2023/08/22 03:10:08;;;;;;;6.30;5.50;;;;;;;17.96;100.00;99431.41;109639;1250;72443;-60
2023/08/22 03:12:35;;;;;;;5.50;5.10;;;;;;;17.98;100.00;99430.67;109627;1250;60569;-62
2023/08/22 03:15:03;;;;;;;7.60;6.30;;;;;;;18.02;100.00;99433.92;109531;1251;60528;-60
2023/08/22 03:17:30;;;;;;;6.90;6.10;;;;;;;18.07;100.00;99429.94;109558;1250;73360;-59
2023/08/22 03:19:56;;;;;;;9.80;6.90;;;;;;;18.14;100.00;99430.35;109548;1250;59062;-60
2023/08/22 03:22:23;;;;;;;6.30;5.80;;;;;;;18.18;100.00;99431.02;109527;1250;72555;-61
2023/08/22 03:24:50;;;;;;;6.90;6.40;;;;;;;18.17;100.00;99429.69;109653;1250;60599;-62
2023/08/22 03:27:17;;;;;;;6.20;5.60;;;;;;;18.16;100.00;99424.37;109663;1250;58946;-61
2023/08/22 03:29:44;;;;;;;8.10;6.30;;;;;;;18.16;100.00;99428.14;109580;1250;74498;-61
2023/08/22 03:32:10;;;;;;;6.90;6.30;;;;;;;18.17;100.00;99428.38;109591;1250;66460;-62
2023/08/22 03:34:37;;;;;;;8.20;6.90;;;;;;;18.18;100.00;99428.33;109570;1250;71485;-61
2023/08/22 03:37:05;;;;;;;7.70;7.00;;;;;;;18.21;100.00;99427.77;109514;1251;60267;-60
2023/08/22 03:39:31;;;;;;;9.60;8.60;;;;;;;18.23;100.00;99431.72;109534;1250;60342;-61
2023/08/22 03:41:58;;;;;;;7.20;6.60;;;;;;;18.27;100.00;99428.66;109650;1250;74619;-61
2023/08/22 03:44:24;;;;;;;7.50;6.30;;;;;;;18.27;100.00;99433.25;109644;1251;68392;-61
2023/08/22 03:46:51;;;;;;;7.40;6.70;;;;;;;18.22;100.00;99430.65;109671;1251;71688;-62
2023/08/22 03:49:26;;;;;;;7.70;7.10;;;;;;;18.16;100.00;99436.80;109567;1250;60540;-63
2023/08/22 03:51:54;;;;;;;6.40;6.00;;;;;;;18.14;100.00;99435.82;109555;1251;59080;-61
2023/08/22 03:54:20;;;;;;;7.30;5.90;;;;;;;18.19;100.00;99435.85;109512;1250;74309;-63
2023/08/22 03:56:47;;;;;;;8.30;6.20;;;;;;;18.31;100.00;99439.14;109689;1250;67736;-61
2023/08/22 03:59:14;;;;;;;7.90;6.90;;;;;;;18.45;100.00;99434.38;109616;1250;72502;-64
2023/08/22 04:01:40;;;;;;;6.50;6.00;;;;;;;18.64;100.00;99434.58;109613;1250;58997;-62
2023/08/22 04:04:07;;;;;;;6.80;6.10;;;;;;;18.85;100.00;99436.94;109648;1250;58944;-61
2023/08/22 04:06:33;;;;;;;7.40;6.70;;;;;;;19.01;100.00;99436.29;109637;1250;73353;-65
2023/08/22 04:09:00;;;;;;;8.00;6.40;;;;;;;19.23;100.00;99442.86;109724;1250;66574;-75
2023/08/22 04:11:27;;;;;;;8.30;6.70;;;;;;;19.59;100.00;99440.13;109495;1250;71505;-76
2023/08/22 04:13:54;;;;;;;7.20;6.40;;;;;;;19.89;100.00;99437.61;109596;1250;60543;-76
2023/08/22 04:16:20;;;;;;;7.20;6.50;;;;;;;20.09;100.00;99439.20;109614;1250;60032;-75
2023/08/22 04:18:47;;;;;;;8.20;6.40;;;;;;;20.23;100.00;99440.48;109570;1250;74320;-75
2023/08/22 04:21:13;;;;;;;6.80;6.30;;;;;;;20.35;100.00;99440.63;109650;1250;68698;-75
2023/08/22 04:23:40;;;;;;;7.10;6.50;;;;;;;20.39;100.00;99442.38;109682;1250;72480;-75
2023/08/22 04:26:06;;;;;;;7.40;6.70;;;;;;;20.40;100.00;99439.45;109527;1251;60269;-75
2023/08/22 04:28:36;;;;;;;8.70;7.00;;;;;;;20.48;100.00;99438.70;109601;1250;60094;-74
2023/08/22 04:31:03;;;;;;;8.00;7.20;;;;;;;20.59;100.00;99433.46;109718;1250;74671;-74
2023/08/22 04:33:30;;;;;;;12.30;6.30;;;;;;;20.79;100.00;99435.58;109613;1250;66470;-75
2023/08/22 04:35:57;;;;;;;7.20;5.70;;;;;;;21.12;100.00;99433.71;109645;1250;72980;-75
2023/08/22 04:38:24;;;;;;;5.90;5.40;;;;;;;21.53;100.00;99436.86;109526;1250;61917;-75
2023/08/22 04:40:52;;;;;;;7.10;5.70;;;;;;;21.88;100.00;99430.27;109561;1252;59357;-75
2023/08/22 04:43:41;;;;;;;6.30;5.50;;;;;;;22.23;100.00;99430.00;109571;1250;74980;-75
2023/08/22 04:46:08;;;;;;;5.40;4.90;;;;;;;22.58;100.00;99431.20;109634;1250;66937;-74
2023/08/22 04:48:35;;;;;;;5.70;5.20;;;;;;;22.99;100.00;99430.64;109617;1251;71170;-74
2023/08/22 04:51:02;;;;;;;9.60;5.90;;;;;;;23.42;100.00;99428.75;109505;1250;59801;-75
2023/08/22 04:53:29;;;;;;;7.30;5.80;;;;;;;23.85;100.00;99426.17;109517;1250;60338;-75
2023/08/22 04:55:55;;;;;;;9.90;6.20;;;;;;;24.25;100.00;99420.95;109627;1250;74851;-75
2023/08/22 04:58:23;;;;;;;7.30;5.60;;;;;;;24.64;100.00;99425.40;109733;1250;66508;-74
2023/08/22 05:00:50;;;;;;;8.40;5.80;;;;;;;24.99;100.00;99424.86;109630;1250;71928;-74
2023/08/22 05:03:19;;;;;;;7.60;5.90;;;;;;;25.33;100.00;99419.02;109506;1250;60105;-75
2023/08/22 05:05:45;;;;;;;9.10;5.90;;;;;;;25.66;100.00;99417.44;109650;1250;58972;-74
2023/08/22 05:08:13;;;;;;;9.30;6.10;;;;;;;25.95;100.00;99418.52;109583;1250;73421;-75
2023/08/22 05:10:39;;;;;;;9.40;7.20;;;;;;;26.23;100.00;99418.60;109705;1250;66319;-75
2023/08/22 05:13:06;;;;;;;8.60;6.40;;;;;;;26.44;100.00;99416.41;109506;1250;71421;-74
2023/08/22 05:15:33;;;;;;;8.60;5.60;;;;;;;26.64;100.00;99414.90;109329;1251;213139;-75
2023/08/22 05:18:01;;;;;;;9.60;6.30;;;;;;;26.89;97.70;99420.15;109564;1251;61031;-75
2023/08/22 05:20:28;;;;;;;13.60;5.70;;;;;;;27.02;94.85;99419.30;109593;1250;74602;-75
2023/08/22 05:22:57;;;;;;;11.90;5.80;;;;;;;27.19;93.80;99417.80;109681;1250;66774;-75
2023/08/22 05:25:23;;;;;;;7.00;5.20;;;;;;;27.39;91.81;99420.95;109608;1251;72331;-75
2023/08/22 05:27:50;;;;;;;14.40;5.30;;;;;;;27.54;89.89;99426.66;109566;1251;59016;-75
2023/08/22 05:30:18;;;;;;;15.40;5.40;;;;;;;27.65;88.15;99431.41;109578;1251;60482;-75
2023/08/22 05:32:46;;;;;;;6.20;4.60;;;;;;;27.75;87.22;99430.95;109470;1251;74626;-74
2023/08/22 05:35:13;;;;;;;7.30;4.20;;;;;;;27.91;85.49;99428.23;109457;1250;67842;-74
2023/08/22 05:37:39;;;;;;;7.40;3.90;;;;;;;28.05;83.60;99429.63;109506;1250;73128;-74
2023/08/22 05:40:08;;;;;;;8.60;4.60;;;;;;;28.19;82.76;99433.84;109475;1250;59241;-74
2023/08/22 05:42:36;;;;;;;7.00;4.10;;;;;;;28.33;81.12;99428.64;109527;1251;60084;-74
2023/08/22 05:45:03;;;;;;;7.60;3.80;;;;;;;28.46;79.61;99426.33;109549;1250;74957;-74
2023/08/22 05:47:32;;;;;;;6.10;3.80;;;;;;;28.60;78.38;99425.86;109670;1250;68400;-74
2023/08/22 05:49:58;;;;;;;5.70;3.90;;;;;;;28.70;75.83;99425.45;109580;1250;71336;-75
2023/08/22 05:52:25;;;;;;;3.80;3.30;;;;;;;28.81;74.94;99421.40;109541;1250;58887;-74
2023/08/22 05:54:53;;;;;;;5.40;3.90;;;;;;;28.93;73.11;99424.94;109553;1250;59407;-73
2023/08/22 05:57:22;;;;;;;5.70;3.90;;;;;;;29.07;72.06;99422.85;109445;1250;73571;-74
2023/08/22 05:59:50;;;;;;;8.20;3.80;;;;;;;29.27;70.28;99425.91;109515;1250;68836;-73
2023/08/22 06:02:17;;;;;;;4.00;3.60;;;;;;;29.45;69.35;99423.37;109631;1250;72623;-73
2023/08/22 06:04:46;;;;;;;6.80;4.30;;;;;;;29.60;67.95;99425.70;109529;1250;59383;-73
2023/08/22 06:07:13;;;;;;;6.60;4.00;;;;;;;29.75;65.95;99420.81;109594;1250;60092;-74
2023/08/22 06:09:40;;;;;;;5.40;4.70;;;;;;;29.89;64.24;99420.52;109462;1250;74529;-72
2023/08/22 06:12:07;;;;;;;8.70;3.90;;;;;;;29.94;61.70;99416.60;109611;1250;67859;-73
2023/08/22 06:14:35;;;;;;;4.70;3.60;;;;;;;30.02;61.13;99417.52;109533;1250;72655;-73
2023/08/22 06:17:02;;;;;;;7.20;3.80;;;;;;;30.16;60.72;99416.08;109426;1250;58980;-72
2023/08/22 06:19:29;;;;;;;3.90;3.50;;;;;;;30.28;60.25;99418.67;109568;1250;60021;-72
2023/08/22 06:21:56;;;;;;;9.90;3.90;;;;;;;30.46;59.40;99421.16;109610;1250;59011;-74
2023/08/22 06:24:22;;;;;;;7.90;4.10;;;;;;;30.64;57.60;99419.70;109666;1250;66401;-72
2023/08/22 06:26:51;;;;;;;6.80;3.80;;;;;;;30.77;56.77;99419.73;109585;1250;72620;-76
2023/08/22 06:29:18;;;;;;;4.00;3.50;;;;;;;30.93;56.09;99416.96;109516;1250;60810;-75
2023/08/22 06:31:44;;;;;;;3.80;3.10;;;;;;;31.03;54.87;99423.91;109564;1250;59333;-74
2023/08/22 06:34:11;;;;;;;5.00;3.10;;;;;;;31.16;54.10;99422.55;109527;1250;73456;-74
2023/08/22 06:36:38;;;;;;;4.40;2.50;;;;;;;31.35;51.94;99425.55;109462;1250;66965;-74
2023/08/22 06:39:05;;;;;;;3.80;2.80;;;;;;;31.48;50.53;99422.70;109570;1251;71389;-70
2023/08/22 06:41:31;;;;;;;3.90;2.90;;;;;;;31.64;49.22;99425.71;109424;1250;60654;-74
2023/08/22 06:44:00;;;;;;;4.00;2.70;;;;;;;31.84;48.66;99424.70;109568;1250;60027;-68
2023/08/22 06:46:27;;;;;;;4.20;2.60;;;;;;;32.09;46.97;99426.27;109589;1250;74642;-68
2023/08/22 06:48:53;;;;;;;5.40;2.80;;;;;;;32.30;45.50;99426.52;109688;1250;65653;-60
2023/08/22 06:51:20;;;;;;;2.70;2.40;;;;;;;32.43;44.46;99425.63;109554;1250;72668;-72
2023/08/22 06:53:47;;;;;;;3.20;2.90;;;;;;;32.44;43.59;99427.20;109514;1250;59337;-77
2023/08/22 06:56:14;;;;;;;3.20;2.50;;;;;;;32.30;42.83;99428.71;109590;1250;59056;-75
2023/08/22 06:58:40;;;;;;;4.50;2.50;;;;;;;32.43;42.21;99427.52;109619;1250;74582;-70
2023/08/22 07:01:07;;;;;;;3.10;2.10;;;;;;;32.63;41.17;99420.11;109633;1253;66759;-72
2023/08/22 07:03:34;;;;;;;3.20;2.10;;;;;;;32.74;41.08;99417.58;109527;1250;72645;-75
2023/08/22 07:06:01;;;;;;;4.40;2.10;;;;;;;32.93;41.00;99417.63;109618;1250;60255;-74
2023/08/22 07:08:27;;;;;;;3.60;2.20;;;;;;;33.06;39.62;99417.45;109662;1250;60397;-71
2023/08/22 07:11:02;;;;;;;3.00;2.10;;;;;;;33.18;39.15;99416.52;109707;1250;74584;-71
2023/08/22 07:13:29;;;;;;;5.00;2.30;;;;;;;33.35;38.18;99416.77;109583;1250;66861;-73
2023/08/22 07:15:56;;;;;;;3.60;2.60;;;;;;;33.40;38.17;99417.28;109603;1250;71436;-71
2023/08/22 07:18:23;;;;;;;2.30;2.00;;;;;;;33.50;37.70;99413.93;109580;1250;59221;-73
2023/08/22 07:20:51;;;;;;;4.80;2.60;;;;;;;33.58;36.73;99417.38;109680;1250;58945;-75
2023/08/22 07:23:21;;;;;;;5.30;2.30;;;;;;;33.65;36.56;99415.61;109627;1250;73258;-74
2023/08/22 07:25:49;;;;;;;4.30;2.40;;;;;;;33.81;36.54;99413.20;109668;1249;68477;-69
2023/08/22 07:28:16;;;;;;;3.30;2.30;;;;;;;33.90;35.62;99413.53;109646;1250;72763;-74
2023/08/22 07:30:46;;;;;;;3.10;1.90;;;;;;;33.92;34.68;99412.20;109518;1250;60368;-73
2023/08/22 07:33:13;;;;;;;2.10;1.60;;;;;;;33.92;33.85;99411.80;109636;1250;60792;-73
2023/08/22 07:35:41;;;;;;;4.40;1.90;;;;;;;34.02;33.52;99408.79;109690;1250;73446;-69
2023/08/22 07:38:07;;;;;;;4.20;1.60;;;;;;;34.33;33.01;99404.99;109682;1250;67124;-70
2023/08/22 07:40:36;;;;;;;3.30;2.10;;;;;;;34.68;32.62;99408.37;109685;1250;72570;-67
2023/08/22 07:43:03;;;;;;;4.60;1.90;;;;;;;34.88;31.15;99408.55;109662;1250;59151;-69
2023/08/22 07:45:30;;;;;;;4.20;2.20;;;;;;;35.09;31.13;99402.27;109603;1251;58845;-76
2023/08/22 07:47:57;;;;;;;5.50;2.00;;;;;;;35.65;30.32;99403.46;109627;1250;74745;-73
2023/08/22 07:50:24;;;;;;;3.60;1.60;;;;;;;36.21;29.17;99403.69;109670;1250;67821;-76
2023/08/22 07:52:50;;;;;;;2.00;1.50;;;;;;;36.67;28.28;99398.87;109593;1250;71167;-80
2023/08/22 07:55:17;;;;;;;1.70;1.40;;;;;;;36.93;28.18;99402.14;109650;1250;59274;-74
2023/08/22 07:57:44;;;;;;;4.50;1.40;;;;;;;37.01;27.88;99397.48;109614;1250;60212;-74
2023/08/22 08:00:11;;;;;;;2.20;1.60;;;;;;;36.79;27.78;99397.37;109648;1250;73351;-75
2023/08/22 08:02:39;;;;;;;2.60;1.40;;;;;;;36.57;27.99;99398.10;109677;1250;67276;-70
2023/08/22 08:05:06;;;;;;;3.00;1.60;;;;;;;36.87;27.58;99395.73;109645;1250;71361;-70
2023/08/22 08:07:34;;;;;;;3.10;1.30;;;;;;;37.45;26.74;99394.15;109715;1250;60245;-68
2023/08/22 08:10:01;;;;;;;2.90;1.50;;;;;;;37.94;25.87;99391.58;109692;1251;60366;-67
2023/08/22 08:12:28;;;;;;;2.10;1.40;;;;;;;38.10;25.56;99394.44;109653;1250;74531;-71
2023/08/22 08:14:54;;;;;;;1.80;1.20;;;;;;;37.92;25.80;99396.75;109679;1250;67558;-68
2023/08/22 08:17:21;;;;;;;5.10;1.70;;;;;;;37.61;25.95;99400.51;109627;1250;71098;-69
2023/08/22 08:19:48;;;;;;;5.40;1.60;;;;;;;37.35;25.94;99396.44;109613;1250;59591;-66
2023/08/22 08:22:14;;;;;;;2.00;1.40;;;;;;;37.21;26.32;99397.95;109584;1251;60279;-69
2023/08/22 08:24:41;;;;;;;3.60;1.60;;;;;;;37.10;26.55;99394.91;109663;1252;60111;-69
2023/08/22 08:27:08;;;;;;;2.00;1.50;;;;;;;37.09;26.89;99393.23;109704;1250;67819;-70
2023/08/22 08:29:35;;;;;;;2.60;1.50;;;;;;;37.08;27.19;99395.19;109611;1250;72367;-70
2023/08/22 08:32:01;;;;;;;2.60;1.50;;;;;;;37.16;26.87;99399.09;109421;1250;58950;-69
2023/08/22 08:34:28;;;;;;;3.10;1.70;;;;;;;37.23;26.76;99397.14;109710;1250;60068;-70
2023/08/22 08:36:54;;;;;;;3.50;1.60;;;;;;;37.32;26.81;99397.30;109552;1250;74437;-69
2023/08/22 08:39:21;;;;;;;2.00;1.60;;;;;;;37.27;26.84;99396.23;109672;1250;67972;-68
2023/08/22 08:41:53;;;;;;;4.60;1.50;;;;;;;37.29;26.79;99396.79;109649;1250;72963;-66
2023/08/22 08:44:19;;;;;;;1.90;1.40;;;;;;;37.30;27.02;99398.95;109494;1250;60064;-72
2023/08/22 08:46:47;;;;;;;2.40;1.20;;;;;;;37.37;27.46;99396.11;109550;1250;59025;-69
2023/08/22 08:49:14;;;;;;;1.40;1.30;;;;;;;37.42;27.62;99392.96;109653;1250;75604;-65
2023/08/22 08:51:41;;;;;;;1.70;1.60;;;;;;;37.53;27.75;99390.44;109389;1250;67883;-70
2023/08/22 08:54:09;;;;;;;2.90;1.50;;;;;;;37.66;27.57;99385.83;109581;1250;71929;-69
2023/08/22 08:56:36;;;;;;;2.40;1.50;;;;;;;37.76;27.35;99389.91;109610;1250;60873;-70
2023/08/22 08:59:02;;;;;;;4.20;1.70;;;;;;;37.82;27.12;99390.89;109668;1250;60157;-69
2023/08/22 09:01:29;;;;;;;2.20;1.30;;;;;;;37.71;26.87;99385.84;109582;1249;74671;-72
2023/08/22 09:03:56;;;;;;;4.20;1.70;;;;;;;37.65;26.94;99386.50;109692;1250;67370;-71
2023/08/22 09:06:23;;;;;;;3.30;1.50;;;;;;;37.60;27.00;99382.86;109524;1250;72532;-71
2023/08/22 09:09:07;;;;;;;3.70;1.90;;;;;;;37.55;27.07;99379.09;109583;1250;58974;-71
2023/08/22 09:11:35;;;;;;;3.70;1.70;;;;;;;37.60;27.07;99381.22;109582;1250;59042;-70
2023/08/22 09:14:05;;;;;;;2.40;1.50;;;;;;;37.49;27.08;99382.86;109651;1250;74618;-71
2023/08/22 09:16:32;;;;;;;3.90;1.70;;;;;;;37.39;27.13;99378.40;109617;1250;66326;-71
2023/08/22 09:19:02;;;;;;;5.10;1.70;;;;;;;37.39;27.31;99377.69;109660;1250;72613;-71
2023/08/22 09:21:29;;;;;;;4.90;1.90;;;;;;;37.48;27.25;99381.33;109641;1250;60127;-70
2023/08/22 09:24:08;;;;;;;5.80;1.40;;;;;;;37.69;27.37;99377.69;109597;1250;59449;-71
2023/08/22 09:26:36;;;;;;;3.90;1.50;;;;;;;37.84;27.04;99368.91;109533;1250;74669;-70
2023/08/22 09:29:06;;;;;;;8.70;2.50;;;;;;;37.95;26.87;99369.59;109626;1250;66506;-71
2023/08/22 09:31:35;;;;;;;3.40;1.80;;;;;;;37.98;26.65;99367.06;109590;1250;72537;-68
2023/08/22 09:34:09;;;;;;;4.80;2.10;;;;;;;38.02;26.77;99368.52;109621;1250;61937;-69
2023/08/22 09:36:45;;;;;;;3.30;1.80;;;;;;;38.04;27.10;99361.26;109578;1250;60751;-70
2023/08/22 09:39:13;;;;;;;2.90;1.50;;;;;;;38.08;27.18;99360.91;109597;1250;75298;-72
2023/08/22 09:41:40;;;;;;;3.60;2.00;;;;;;;38.06;27.13;99361.45;109677;1250;67715;-67
2023/08/22 09:44:09;;;;;;;2.80;1.40;;;;;;;37.86;26.77;99357.40;109643;1250;72680;-67
2023/08/22 09:46:42;;;;;;;4.00;1.70;;;;;;;37.66;27.42;99358.63;109528;1251;60341;-72
2023/08/22 09:49:14;;;;;;;6.30;1.90;;;;;;;37.65;27.77;99364.25;109659;1250;58894;-65
2023/08/22 09:51:41;;;;;;;1.90;1.30;;;;;;;37.84;27.53;99353.64;109517;1250;73476;-69
2023/08/22 09:54:07;;;;;;;2.60;1.50;;;;;;;37.77;27.42;99353.00;109624;1250;68045;-68
2023/08/22 09:56:37;;;;;;;2.20;1.40;;;;;;;37.59;27.59;99354.08;109549;1251;71443;-69
2023/08/22 09:59:03;;;;;;;2.80;1.60;;;;;;;37.45;27.85;99352.55;109628;1250;60188;-66
2023/08/22 10:01:33;;;;;;;3.10;2.40;;;;;;;37.39;27.84;99349.08;109688;1250;59077;-70
2023/08/22 10:04:04;;;;;;;2.70;2.00;;;;;;;37.50;28.38;99345.05;109705;1249;74754;-70
2023/08/22 10:06:33;;;;;;;4.80;1.80;;;;;;;37.91;28.24;99335.58;109630;1250;66630;-67
2023/08/22 10:09:13;;;;;;;4.60;2.50;;;;;;;38.25;27.73;99337.64;109614;1250;72720;-66
2023/08/22 10:11:48;;;;;;;4.80;2.10;;;;;;;38.47;27.11;99335.22;109637;1250;60103;-67
2023/08/22 10:14:43;;;;;;;10.40;2.60;;;;;;;38.60;26.82;99330.70;109561;1250;60619;-68
2023/08/22 10:17:12;;;;;;;8.20;2.20;;;;;;;38.64;26.44;99328.27;109562;1250;74642;-69
2023/08/22 10:19:39;;;;;;;5.20;2.00;;;;;;;38.47;26.67;99322.27;109717;1250;67725;-66
2023/08/22 10:22:07;;;;;;;7.30;2.60;;;;;;;38.37;26.63;99321.52;109567;1250;73005;-65
2023/08/22 10:24:35;;;;;;;2.30;1.80;;;;;;;38.05;26.97;99316.55;109576;1250;60158;-68
2023/08/22 10:27:09;;;;;;;4.10;1.80;;;;;;;37.80;27.58;99319.47;109552;1250;60002;-67
2023/08/22 10:29:37;;;;;;;4.00;2.10;;;;;;;37.55;27.55;99317.98;109619;1250;73561;-69
2023/08/22 10:32:03;;;;;;;3.40;1.70;;;;;;;37.31;27.55;99319.92;109644;1250;66956;-67
2023/08/22 10:34:39;;;;;;;7.30;1.80;;;;;;;37.08;27.82;99319.27;109516;1250;72481;-69
2023/08/22 10:37:17;;;;;;;4.10;2.00;;;;;;;36.97;28.39;99319.71;109490;1250;59022;-67
2023/08/22 10:39:45;;;;;;;5.50;2.20;;;;;;;36.88;28.25;99314.82;109539;1250;58975;-71
2023/08/22 10:42:14;;;;;;;1.90;1.60;;;;;;;36.62;28.37;99317.62;109519;1251;73585;-67
2023/08/22 10:44:42;;;;;;;6.60;2.20;;;;;;;36.32;28.95;99318.34;109524;1250;66123;-70
2023/08/22 10:47:22;;;;;;;4.00;1.70;;;;;;;36.19;29.19;99315.02;109533;1250;72967;-69
2023/08/22 10:49:55;;;;;;;6.30;1.90;;;;;;;36.08;29.18;99316.45;109646;1250;60249;-69
2023/08/22 10:52:42;;;;;;;3.70;1.90;;;;;;;36.15;28.96;99321.13;109655;1250;60344;-70
2023/08/22 10:55:12;;;;;;;5.80;2.60;;;;;;;36.21;28.96;99312.17;109622;1250;73826;-70
2023/08/22 10:57:45;;;;;;;11.50;2.20;;;;;;;36.31;29.05;99311.08;109752;1250;66605;-70
2023/08/22 11:00:19;;;;;;;5.40;2.30;;;;;;;36.61;28.95;99302.61;109680;1250;72650;-69
2023/08/22 11:02:58;;;;;;;9.50;2.10;;;;;;;36.88;28.28;99305.15;109608;1251;60200;-71
2023/08/22 11:05:26;;;;;;;5.10;2.10;;;;;;;36.86;28.04;99304.46;109669;1250;58938;-69
2023/08/22 11:07:53;;;;;;;5.40;2.30;;;;;;;36.55;27.88;99302.02;109654;1250;75657;-71
2023/08/22 11:10:21;;;;;;;6.80;2.70;;;;;;;36.21;28.18;99306.07;109681;1250;68421;-73
2023/08/22 11:12:49;;;;;;;2.60;2.10;;;;;;;35.90;28.38;99305.67;109567;1250;71654;-71
2023/08/22 11:15:17;;;;;;;20.50;8.70;;;;;;;35.61;28.72;99300.97;109707;1250;58870;-72
2023/08/22 11:17:45;;;;;;;6.00;3.30;;;;;;;35.21;29.38;99296.50;109700;1250;60621;-69
2023/08/22 11:20:13;;;;;;;3.90;2.00;;;;;;;34.78;30.02;99299.38;109625;1250;74337;-69
2023/08/22 11:22:40;;;;;;;4.10;2.00;;;;;;;34.57;30.64;99297.46;109722;1250;66217;-67
2023/08/22 11:25:07;;;;;;;6.10;2.50;;;;;;;34.56;31.11;99292.21;109627;1250;71551;-72
2023/08/22 11:27:38;;;;;;;4.80;1.90;;;;;;;34.59;30.76;99283.20;109596;1250;60498;-70